createdAt,value
2016-12-03T00:00:13.754Z,48.23
2016-12-03T00:01:23.900Z,48.61
2016-12-03T00:02:34.044Z,48.33
2016-12-03T00:03:43.461Z,48.43
2016-12-03T00:04:53.918Z,48.33
2016-12-03T00:06:03.707Z,48.43
2016-12-03T00:07:13.102Z,48.52
2016-12-03T00:08:22.510Z,48.61
2016-12-03T00:09:32.334Z,48.33
2016-12-03T00:10:42.358Z,48.52
2016-12-03T00:11:52.075Z,48.52
2016-12-03T00:13:02.190Z,48.43
2016-12-03T00:14:12.183Z,48.71
2016-12-03T00:15:22.200Z,48.71
2016-12-03T00:16:31.910Z,48.43
2016-12-03T00:17:41.673Z,48.33
2016-12-03T00:18:51.068Z,47.85
2016-12-03T00:20:01.105Z,48.33
2016-12-03T00:21:11.437Z,48.33
2016-12-03T00:22:20.969Z,48.13
2016-12-03T00:23:30.359Z,48.33
2016-12-03T00:24:40.208Z,48.03
2016-12-03T00:25:49.309Z,48.52
2016-12-03T00:26:58.086Z,47.85
2016-12-03T00:28:08.520Z,48.33
2016-12-03T00:29:18.274Z,48.03
2016-12-03T00:30:27.442Z,48.23
2016-12-03T00:31:37.198Z,47.65
2016-12-03T00:32:46.913Z,48.03
2016-12-03T00:33:56.949Z,48.43
2016-12-03T00:35:07.288Z,48.13
2016-12-03T00:36:17.657Z,48.03
2016-12-03T00:37:26.759Z,48.33
2016-12-03T00:38:36.534Z,48.03
2016-12-03T00:39:46.866Z,48.43
2016-12-03T00:40:55.956Z,47.75
2016-12-03T00:42:05.356Z,48.03
2016-12-03T00:43:15.342Z,48.03
2016-12-03T00:44:25.406Z,48.52
2016-12-03T00:45:35.430Z,47.94
2016-12-03T00:46:45.129Z,48.03
2016-12-03T00:47:55.008Z,48.33
2016-12-03T00:49:05.078Z,48.23
2016-12-03T00:50:15.435Z,48.13
2016-12-03T00:51:25.147Z,48.03
2016-12-03T00:52:35.498Z,48.13
2016-12-03T00:53:45.204Z,47.85
2016-12-03T00:54:55.214Z,47.85
2016-12-03T00:56:05.624Z,48.33
2016-12-03T00:57:15.018Z,47.94
2016-12-03T00:58:24.713Z,47.75
2016-12-03T00:59:34.423Z,47.53
2016-12-03T01:00:44.425Z,47.94
2016-12-03T01:01:54.822Z,48.13
2016-12-03T01:03:05.147Z,47.46
2016-12-03T01:04:15.220Z,47.65
2016-12-03T01:05:24.927Z,48.03
2016-12-03T01:06:35.257Z,47.75
2016-12-03T01:07:45.076Z,47.63
2016-12-03T01:08:54.796Z,47.94
2016-12-03T01:10:04.505Z,47.36
2016-12-03T01:11:14.535Z,47.85
2016-12-03T01:12:24.857Z,47.56
2016-12-03T01:13:34.966Z,47.56
2016-12-03T01:14:44.972Z,47.56
2016-12-03T01:15:55.495Z,47.27
2016-12-03T01:17:05.177Z,47.27
2016-12-03T01:18:15.196Z,47.27
2016-12-03T01:19:24.599Z,47.17
2016-12-03T01:20:34.623Z,47.46
2016-12-03T01:21:44.057Z,47.75
2016-12-03T01:22:54.085Z,46.69
2016-12-03T01:24:03.796Z,47.56
2016-12-03T01:25:13.288Z,47.75
2016-12-03T01:26:23.396Z,47.08
2016-12-03T01:27:33.444Z,47.17
2016-12-03T01:28:43.161Z,47.27
2016-12-03T01:29:52.850Z,47.17
2016-12-03T01:31:02.844Z,47.17
2016-12-03T01:32:11.956Z,47.24
2016-12-03T01:33:21.345Z,47.17
2016-12-03T01:34:31.364Z,47.08
2016-12-03T01:35:41.525Z,47.46
2016-12-03T01:36:50.925Z,47.27
2016-12-03T01:38:00.916Z,47.05
2016-12-03T01:39:11.228Z,47.36
2016-12-03T01:40:20.916Z,46.98
2016-12-03T01:41:30.639Z,47.27
2016-12-03T01:42:40.351Z,47.15
2016-12-03T01:43:50.025Z,47.17
2016-12-03T01:45:00.345Z,47.27
2016-12-03T01:46:10.156Z,47.36
2016-12-03T01:47:19.539Z,46.88
2016-12-03T01:48:29.657Z,47.36
2016-12-03T01:49:40.006Z,46.77
2016-12-03T01:50:50.303Z,47.27
2016-12-03T01:52:00.046Z,47.15
2016-12-03T01:53:10.167Z,47.44
2016-12-03T01:54:19.874Z,47.27
2016-12-03T01:55:29.636Z,47.36
2016-12-03T01:56:39.340Z,46.57
2016-12-03T01:57:49.147Z,47.46
2016-12-03T01:58:59.153Z,47.15
2016-12-03T02:00:08.855Z,46.78
2016-12-03T02:01:19.177Z,47.56
2016-12-03T02:02:29.590Z,47.15
2016-12-03T02:03:39.998Z,46.98
2016-12-03T02:04:49.438Z,46.95
2016-12-03T02:05:59.588Z,47.27
2016-12-03T02:07:09.614Z,47.56
2016-12-03T02:08:19.329Z,46.88
2016-12-03T02:09:28.725Z,46.47
2016-12-03T02:10:38.719Z,47.34
2016-12-03T02:11:47.777Z,47.36
2016-12-03T02:12:57.902Z,46.95
2016-12-03T02:14:07.887Z,46.88
2016-12-03T02:15:17.657Z,46.78
2016-12-03T02:16:27.398Z,46.47
2016-12-03T02:17:37.415Z,46.4
2016-12-03T02:18:47.456Z,46.31
2016-12-03T02:19:56.528Z,47.17
2016-12-03T02:21:05.967Z,46.59
2016-12-03T02:22:15.498Z,46.11
2016-12-03T02:23:25.543Z,46.78
2016-12-03T02:24:35.878Z,46.78
2016-12-03T02:25:45.889Z,46.69
2016-12-03T02:26:55.883Z,46.78
2016-12-03T02:28:05.920Z,46.69
2016-12-03T02:29:15.297Z,46.69
2016-12-03T02:30:24.971Z,46.11
2016-12-03T02:31:35.377Z,46.4
2016-12-03T02:32:45.084Z,46.5
2016-12-03T02:33:55.186Z,46.69
2016-12-03T02:35:04.590Z,46.69
2016-12-03T02:36:13.692Z,46.11
2016-12-03T02:37:23.379Z,46.28
2016-12-03T02:38:32.766Z,46.11
2016-12-03T02:39:42.758Z,46.38
2016-12-03T02:40:53.075Z,47.24
2016-12-03T02:42:02.481Z,46.31
2016-12-03T02:43:12.173Z,46.59
2016-12-03T02:44:21.565Z,46.4
2016-12-03T02:45:31.262Z,47.17
2016-12-03T02:46:40.957Z,46.47
2016-12-03T02:47:51.110Z,46.19
2016-12-03T02:49:01.168Z,45.8
2016-12-03T02:50:11.608Z,45.92
2016-12-03T02:51:20.992Z,46.59
2016-12-03T02:52:30.238Z,46.11
2016-12-03T02:53:39.338Z,46.4
2016-12-03T02:54:49.075Z,46.31
2016-12-03T02:55:59.126Z,46.01
2016-12-03T02:57:09.186Z,45.92
2016-12-03T02:58:19.208Z,46.69
2016-12-03T02:59:28.905Z,46.47
2016-12-03T03:00:38.910Z,46.21
2016-12-03T03:01:48.904Z,46.11
2016-12-03T03:02:58.278Z,46.19
2016-12-03T03:04:08.333Z,46.21
2016-12-03T03:05:17.717Z,46.11
2016-12-03T03:06:27.417Z,46.38
2016-12-03T03:07:36.795Z,46.69
2016-12-03T03:08:46.902Z,46.19
2016-12-03T03:09:56.592Z,46.5
2016-12-03T03:11:05.518Z,45.83
2016-12-03T03:12:14.590Z,46.28
2016-12-03T03:13:24.598Z,46.09
2016-12-03T03:14:34.326Z,46.09
2016-12-03T03:15:43.846Z,46.09
2016-12-03T03:16:53.846Z,46.09
2016-12-03T03:18:03.548Z,46.19
2016-12-03T03:19:13.648Z,46.28
2016-12-03T03:20:23.451Z,46.21
2016-12-03T03:21:33.140Z,46.38
2016-12-03T03:22:43.150Z,46.38
2016-12-03T03:23:52.936Z,46.38
2016-12-03T03:25:02.307Z,46.28
2016-12-03T03:26:11.982Z,46.11
2016-12-03T03:27:21.375Z,46.09
2016-12-03T03:28:30.535Z,46.77
2016-12-03T03:29:39.921Z,46.4
2016-12-03T03:30:50.261Z,46.28
2016-12-03T03:32:00.057Z,46.19
2016-12-03T03:33:09.450Z,46.09
2016-12-03T03:34:18.929Z,45.7
2016-12-03T03:35:28.926Z,46.57
2016-12-03T03:36:38.356Z,46.4
2016-12-03T03:37:47.443Z,46.28
2016-12-03T03:38:57.149Z,45.42
2016-12-03T03:40:06.897Z,46.4
2016-12-03T03:41:16.297Z,46.09
2016-12-03T03:42:25.776Z,46.09
2016-12-03T03:43:35.471Z,46.09
2016-12-03T03:44:45.484Z,46.21
2016-12-03T03:45:54.580Z,46.01
2016-12-03T03:47:04.399Z,45.83
2016-12-03T03:48:14.103Z,46.11
2016-12-03T03:49:22.857Z,46.31
2016-12-03T03:50:32.885Z,46.57
2016-12-03T03:51:42.947Z,46.47
2016-12-03T03:52:53.057Z,46.28
2016-12-03T03:54:02.454Z,46.69
2016-12-03T03:55:12.542Z,46.57
2016-12-03T03:56:22.255Z,46.38
2016-12-03T03:57:32.029Z,47.27
2016-12-03T03:58:41.194Z,47.34
2016-12-03T03:59:50.903Z,46.57
2016-12-03T04:01:00.890Z,47.24
2016-12-03T04:02:10.894Z,47.15
2016-12-03T04:03:20.290Z,46.86
2016-12-03T04:04:29.685Z,47.05
2016-12-03T04:05:40.064Z,47.05
2016-12-03T04:06:50.067Z,47.05
2016-12-03T04:07:59.771Z,47.24
2016-12-03T04:09:09.772Z,47.24
2016-12-03T04:10:19.322Z,47.15
2016-12-03T04:11:29.037Z,47.82
2016-12-03T04:12:39.088Z,47.82
2016-12-03T04:13:48.489Z,48.11
2016-12-03T04:14:58.167Z,47.34
2016-12-03T04:16:08.177Z,47.63
2016-12-03T04:17:18.483Z,47.82
2016-12-03T04:18:28.819Z,47.75
2016-12-03T04:19:38.662Z,48.49
2016-12-03T04:20:48.659Z,48.43
2016-12-03T04:21:58.141Z,48.4
2016-12-03T04:23:08.219Z,48.49
2016-12-03T04:24:17.609Z,48.4
2016-12-03T04:25:27.313Z,48.71
2016-12-03T04:26:37.089Z,48.97
2016-12-03T04:27:47.100Z,48.43
2016-12-03T04:28:57.196Z,48.33
2016-12-03T04:30:05.962Z,48.43
2016-12-03T04:31:15.359Z,48.33
2016-12-03T04:32:25.427Z,48.33
2016-12-03T04:33:35.135Z,47.94
2016-12-03T04:34:44.835Z,47.46
2016-12-03T04:35:54.231Z,47.56
2016-12-03T04:37:04.330Z,47.65
2016-12-03T04:38:14.330Z,47.65
2016-12-03T04:39:23.405Z,48.13
2016-12-03T04:40:32.791Z,48.23
2016-12-03T04:41:43.111Z,47.75
2016-12-03T04:42:52.961Z,48.13
2016-12-03T04:44:01.730Z,48.23
2016-12-03T04:45:11.439Z,47.36
2016-12-03T04:46:20.831Z,47.56
2016-12-03T04:47:30.531Z,47.65
2016-12-03T04:48:40.214Z,47.56
2016-12-03T04:49:50.522Z,48.03
2016-12-03T04:51:00.515Z,47.65
2016-12-03T04:52:10.212Z,48.23
2016-12-03T04:53:19.601Z,47.65
2016-12-03T04:54:29.312Z,47.46
2016-12-03T04:55:39.342Z,47.75
2016-12-03T04:56:49.153Z,47.65
2016-12-03T04:57:58.242Z,47.65
2016-12-03T04:59:07.940Z,48.13
2016-12-03T05:00:18.268Z,48.03
2016-12-03T05:01:28.683Z,47.65
2016-12-03T05:02:38.390Z,47.85
2016-12-03T05:03:48.390Z,48.13
2016-12-03T05:04:58.460Z,48.13
2016-12-03T05:06:07.847Z,47.75
2016-12-03T05:07:18.272Z,47.94
2016-12-03T05:08:27.972Z,48.43
2016-12-03T05:09:37.720Z,48.43
2016-12-03T05:10:47.420Z,48.23
2016-12-03T05:11:57.412Z,48.33
2016-12-03T05:13:07.405Z,48.43
2016-12-03T05:14:17.403Z,48.43
2016-12-03T05:15:27.521Z,48.52
2016-12-03T05:16:37.208Z,48.71
2016-12-03T05:17:46.633Z,48.61
2016-12-03T05:18:56.699Z,48.61
2016-12-03T05:20:06.394Z,48.43
2016-12-03T05:21:15.941Z,48.71
2016-12-03T05:22:25.332Z,48.71
2016-12-03T05:23:34.493Z,48.3
2016-12-03T05:24:44.535Z,48.61
2016-12-03T05:25:54.292Z,48.52
2016-12-03T05:27:04.097Z,48.43
2016-12-03T05:28:12.860Z,48.79
2016-12-03T05:29:22.260Z,48.88
2016-12-03T05:30:32.599Z,48.49
2016-12-03T05:31:42.453Z,48.88
2016-12-03T05:32:52.462Z,48.97
2016-12-03T05:34:02.482Z,49.27
2016-12-03T05:35:12.800Z,48.88
2016-12-03T05:36:22.211Z,48.88
2016-12-03T05:37:31.601Z,48.88
2016-12-03T05:38:41.335Z,49.07
2016-12-03T05:39:51.085Z,49.36
2016-12-03T05:41:00.787Z,49.17
2016-12-03T05:42:10.217Z,49.46
2016-12-03T05:43:19.921Z,49.27
2016-12-03T05:44:29.630Z,49.46
2016-12-03T05:45:39.662Z,49.46
2016-12-03T05:46:49.056Z,49.27
2016-12-03T05:47:59.043Z,49.19
2016-12-03T05:49:08.754Z,48.79
2016-12-03T05:50:19.019Z,48.97
2016-12-03T05:51:28.675Z,49.07
2016-12-03T05:52:38.064Z,48.81
2016-12-03T05:53:48.059Z,48.71
2016-12-03T05:54:57.140Z,48.52
2016-12-03T05:56:06.593Z,48.61
2016-12-03T05:57:16.328Z,48.52
2016-12-03T05:58:25.697Z,48.33
2016-12-03T05:59:35.548Z,48.52
2016-12-03T06:00:45.222Z,48.49
2016-12-03T06:01:54.622Z,48.52
2016-12-03T06:03:03.401Z,48.61
2016-12-03T06:04:13.094Z,48.52
2016-12-03T06:05:22.192Z,48.52
2016-12-03T06:06:32.187Z,48.43
2016-12-03T06:07:41.903Z,48.33
2016-12-03T06:08:51.024Z,48.43
2016-12-03T06:10:00.693Z,48.61
2016-12-03T06:11:10.712Z,48.33
2016-12-03T06:12:20.164Z,48.61
2016-12-03T06:13:30.172Z,48.33
2016-12-03T06:14:39.308Z,48.52
2016-12-03T06:15:48.472Z,48.71
2016-12-03T06:16:57.562Z,48.43
2016-12-03T06:18:07.881Z,48.9
2016-12-03T06:19:17.903Z,49.19
2016-12-03T06:20:27.289Z,49.77
2016-12-03T06:21:36.682Z,49.1
2016-12-03T06:22:46.213Z,49.58
2016-12-03T06:23:55.948Z,49.77
2016-12-03T06:25:06.230Z,49.58
2016-12-03T06:26:15.612Z,49.29
2016-12-03T06:27:26.204Z,49.19
2016-12-03T06:28:36.247Z,49.38
2016-12-03T06:29:46.633Z,49.48
2016-12-03T06:30:55.844Z,49.68
2016-12-03T06:32:05.844Z,49.48
2016-12-03T06:33:15.230Z,49.48
2016-12-03T06:34:25.224Z,49.38
2016-12-03T06:35:35.244Z,49.58
2016-12-03T06:36:45.099Z,49.68
2016-12-03T06:37:54.243Z,49.58
2016-12-03T06:39:03.942Z,49.68
2016-12-03T06:40:13.577Z,49.58
2016-12-03T06:41:23.298Z,49.58
2016-12-03T06:42:33.619Z,49.68
2016-12-03T06:43:43.377Z,49.68
2016-12-03T06:44:52.754Z,49.58
2016-12-03T06:46:02.170Z,49.68
2016-12-03T06:47:12.173Z,49.38
2016-12-03T06:48:21.897Z,49.38
2016-12-03T06:49:31.694Z,49.58
2016-12-03T06:50:41.076Z,49.68
2016-12-03T06:51:50.543Z,49.48
2016-12-03T06:53:00.524Z,49.68
2016-12-03T06:54:09.985Z,49.38
2016-12-03T06:55:19.794Z,49.55
2016-12-03T06:56:29.803Z,49.77
2016-12-03T06:57:39.575Z,49.36
2016-12-03T06:58:49.624Z,49.68
2016-12-03T06:59:59.664Z,49.68
2016-12-03T07:01:09.861Z,49.74
2016-12-03T07:02:19.585Z,49.36
2016-12-03T07:03:28.969Z,49.68
2016-12-03T07:04:38.906Z,49.48
2016-12-03T07:05:48.610Z,49.96
2016-12-03T07:06:58.597Z,50.04
2016-12-03T07:08:07.678Z,49.68
2016-12-03T07:09:17.064Z,49.68
2016-12-03T07:10:27.124Z,49.65
2016-12-03T07:11:36.836Z,49.55
2016-12-03T07:12:46.873Z,49.48
2016-12-03T07:13:56.517Z,49.68
2016-12-03T07:15:06.525Z,50.04
2016-12-03T07:16:16.227Z,49.77
2016-12-03T07:17:26.236Z,49.68
2016-12-03T07:18:35.946Z,49.74
2016-12-03T07:19:45.935Z,50.04
2016-12-03T07:20:55.005Z,49.65
2016-12-03T07:22:04.404Z,49.84
2016-12-03T07:23:13.278Z,49.74
2016-12-03T07:24:22.051Z,49.65
2016-12-03T07:25:32.056Z,49.77
2016-12-03T07:26:42.139Z,49.58
2016-12-03T07:27:51.856Z,49.77
2016-12-03T07:29:01.406Z,50.54
2016-12-03T07:30:10.847Z,51.02
2016-12-03T07:31:20.649Z,51.12
2016-12-03T07:32:30.386Z,52.18
2016-12-03T07:33:39.157Z,52.18
2016-12-03T07:34:49.183Z,53.05
2016-12-03T07:35:59.090Z,54.75
2016-12-03T07:37:09.054Z,55.81
2016-12-03T07:38:19.439Z,54.75
2016-12-03T07:39:29.123Z,54.08
2016-12-03T07:40:39.673Z,53.31
2016-12-03T07:41:49.729Z,52.25
2016-12-03T07:43:00.008Z,52.34
2016-12-03T07:44:10.471Z,51.38
2016-12-03T07:45:19.877Z,50.42
2016-12-03T07:46:29.150Z,49.94
2016-12-03T07:47:39.378Z,49.46
2016-12-03T07:48:49.529Z,49.36
2016-12-03T07:49:59.698Z,48.59
2016-12-03T07:51:08.469Z,48.11
2016-12-03T07:52:18.799Z,47.92
2016-12-03T07:53:28.539Z,48.11
2016-12-03T07:54:38.420Z,46.95
2016-12-03T07:55:47.929Z,47.05
2016-12-03T07:56:57.326Z,46.57
2016-12-03T07:58:07.039Z,46.28
2016-12-03T07:59:16.860Z,46.09
2016-12-03T08:00:26.388Z,46.09
2016-12-03T08:01:36.124Z,45.32
2016-12-03T08:02:46.141Z,45.42
2016-12-03T08:03:55.564Z,45.13
2016-12-03T08:05:05.672Z,45.13
2016-12-03T08:06:15.374Z,45.13
2016-12-03T08:07:25.691Z,44.48
2016-12-03T08:08:35.482Z,44.09
2016-12-03T08:09:44.877Z,44.09
2016-12-03T08:10:54.612Z,43.9
2016-12-03T08:12:04.210Z,43.8
2016-12-03T08:13:14.944Z,43.23
2016-12-03T08:14:25.013Z,43.51
2016-12-03T08:15:35.016Z,43.8
2016-12-03T08:16:44.462Z,43.61
2016-12-03T08:17:54.159Z,43.41
2016-12-03T08:19:03.647Z,42.46
2016-12-03T08:20:13.661Z,42.55
2016-12-03T08:21:23.590Z,42.55
2016-12-03T08:22:33.319Z,42.55
2016-12-03T08:23:43.030Z,42.46
2016-12-03T08:24:53.356Z,42.07
2016-12-03T08:26:03.122Z,42.16
2016-12-03T08:27:13.186Z,42.47
2016-12-03T08:28:22.890Z,41.68
2016-12-03T08:29:32.344Z,41.71
2016-12-03T08:30:42.420Z,44.02
2016-12-03T08:31:52.455Z,44.4
2016-12-03T08:33:02.479Z,45.27
2016-12-03T08:34:12.793Z,45.27
2016-12-03T08:35:22.521Z,45.27
2016-12-03T08:36:32.239Z,45.27
2016-12-03T08:37:42.251Z,46.23
2016-12-03T08:38:52.308Z,46.14
2016-12-03T08:40:02.340Z,46.62
2016-12-03T08:41:11.911Z,47.29
2016-12-03T08:42:21.342Z,47.1
2016-12-03T08:43:31.351Z,47.29
2016-12-03T08:44:41.696Z,47.67
2016-12-03T08:45:51.764Z,47.67
2016-12-03T08:47:01.460Z,47.58
2016-12-03T08:48:10.551Z,47.49
2016-12-03T08:49:21.031Z,47.87
2016-12-03T08:50:30.731Z,48.06
2016-12-03T08:51:40.443Z,48.16
2016-12-03T08:52:50.460Z,47.97
2016-12-03T08:54:00.473Z,48.03
2016-12-03T08:55:10.793Z,48.52
2016-12-03T08:56:20.209Z,47.85
2016-12-03T08:57:30.251Z,48.13
2016-12-03T08:58:40.296Z,48.03
2016-12-03T08:59:50.410Z,48.13
2016-12-03T09:01:00.443Z,48.33
2016-12-03T09:02:10.939Z,48.9
2016-12-03T09:03:21.272Z,49.48
2016-12-03T09:04:30.976Z,49.77
2016-12-03T09:05:40.489Z,49.38
2016-12-03T09:06:50.878Z,49.38
2016-12-03T09:08:01.225Z,49.68
2016-12-03T09:09:11.249Z,49.77
2016-12-03T09:10:21.291Z,49.1
2016-12-03T09:11:30.987Z,49.38
2016-12-03T09:12:40.709Z,49
2016-12-03T09:13:51.261Z,49
2016-12-03T09:15:00.960Z,49.58
2016-12-03T09:16:10.672Z,49.68
2016-12-03T09:17:20.432Z,49.38
2016-12-03T09:18:30.161Z,48.9
2016-12-03T09:19:40.189Z,49.07
2016-12-03T09:20:50.048Z,48.81
2016-12-03T09:22:00.494Z,48.97
2016-12-03T09:23:09.895Z,48.81
2016-12-03T09:24:19.292Z,49.48
2016-12-03T09:25:29.800Z,49.74
2016-12-03T09:26:39.911Z,49.68
2016-12-03T09:27:50.240Z,50.04
2016-12-03T09:29:00.240Z,50.13
2016-12-03T09:30:09.539Z,49.96
2016-12-03T09:31:19.879Z,49.96
2016-12-03T09:32:29.850Z,49.87
2016-12-03T09:33:39.981Z,50.45
2016-12-03T09:34:50.049Z,50.04
2016-12-03T09:36:00.246Z,50.13
2016-12-03T09:37:10.249Z,50.23
2016-12-03T09:38:20.266Z,50.32
2016-12-03T09:39:29.742Z,50.51
2016-12-03T09:40:39.631Z,50.51
2016-12-03T09:41:49.889Z,50.51
2016-12-03T09:42:58.969Z,50.51
2016-12-03T09:44:08.987Z,50.51
2016-12-03T09:45:19.380Z,50.51
2016-12-03T09:46:29.486Z,50.23
2016-12-03T09:47:39.555Z,50.9
2016-12-03T09:48:49.555Z,50.32
2016-12-03T09:50:00.013Z,50.99
2016-12-03T09:51:10.150Z,50.32
2016-12-03T09:52:20.224Z,50.42
2016-12-03T09:53:30.302Z,50.61
2016-12-03T09:54:40.300Z,50.61
2016-12-03T09:55:50.301Z,50.23
2016-12-03T09:57:00.403Z,50.71
2016-12-03T09:58:09.811Z,50.32
2016-12-03T09:59:19.214Z,50.42
2016-12-03T10:00:29.555Z,50.23
2016-12-03T10:01:39.274Z,50.32
2016-12-03T10:02:48.979Z,50.15
2016-12-03T10:03:59.310Z,50.15
2016-12-03T10:05:08.701Z,50.23
2016-12-03T10:06:18.700Z,50.32
2016-12-03T10:07:28.520Z,50.32
2016-12-03T10:08:38.957Z,50.13
2016-12-03T10:09:48.738Z,50.35
2016-12-03T10:10:58.795Z,49.94
2016-12-03T10:12:08.491Z,49.87
2016-12-03T10:13:18.500Z,50.06
2016-12-03T10:14:28.589Z,49.96
2016-12-03T10:15:38.009Z,49.77
2016-12-03T10:16:48.458Z,49.87
2016-12-03T10:17:58.856Z,49.58
2016-12-03T10:19:08.676Z,49.96
2016-12-03T10:20:18.441Z,50.15
2016-12-03T10:21:28.536Z,49.96
2016-12-03T10:22:38.566Z,49.58
2016-12-03T10:23:48.260Z,49.29
2016-12-03T10:24:57.950Z,49.68
2016-12-03T10:26:07.350Z,49.68
2016-12-03T10:27:17.066Z,49.68
2016-12-03T10:28:27.099Z,50.25
2016-12-03T10:29:36.928Z,49.58
2016-12-03T10:30:47.714Z,50.15
2016-12-03T10:31:58.047Z,49.87
2016-12-03T10:33:08.069Z,49.87
2016-12-03T10:34:18.428Z,50.06
2016-12-03T10:35:28.439Z,49.87
2016-12-03T10:36:38.479Z,50.25
2016-12-03T10:37:48.053Z,50.35
2016-12-03T10:38:57.781Z,50.73
2016-12-03T10:40:07.773Z,50.93
2016-12-03T10:41:18.106Z,50.25
2016-12-03T10:42:28.469Z,50.54
2016-12-03T10:43:37.913Z,50.45
2016-12-03T10:44:47.300Z,50.54
2016-12-03T10:45:57.794Z,50.93
2016-12-03T10:47:07.818Z,50.63
2016-12-03T10:48:17.977Z,50.45
2016-12-03T10:49:28.004Z,50.63
2016-12-03T10:50:38.012Z,50.25
2016-12-03T10:51:48.234Z,50.25
2016-12-03T10:52:58.254Z,50.54
2016-12-03T10:54:08.261Z,50.45
2016-12-03T10:55:18.275Z,50.25
2016-12-03T10:56:28.307Z,50.15
2016-12-03T10:57:38.651Z,50.06
2016-12-03T10:58:48.666Z,50.15
2016-12-03T10:59:58.995Z,50.25
2016-12-03T11:01:08.788Z,50.25
2016-12-03T11:02:18.254Z,50.15
2016-12-03T11:03:28.034Z,50.45
2016-12-03T11:04:38.042Z,50.25
2016-12-03T11:05:48.037Z,50.35
2016-12-03T11:06:58.419Z,50.54
2016-12-03T11:08:07.908Z,51.41
2016-12-03T11:09:18.080Z,51.02
2016-12-03T11:10:28.104Z,50.73
2016-12-03T11:11:37.906Z,51.12
2016-12-03T11:12:47.918Z,51.12
2016-12-03T11:13:57.965Z,51.14
2016-12-03T11:15:08.090Z,51.02
2016-12-03T11:16:18.551Z,51.53
2016-12-03T11:17:28.366Z,51.53
2016-12-03T11:18:38.383Z,51.34
2016-12-03T11:19:48.089Z,51.43
2016-12-03T11:20:58.495Z,51.34
2016-12-03T11:22:08.190Z,51.62
2016-12-03T11:23:17.662Z,51.34
2016-12-03T11:24:27.375Z,51.92
2016-12-03T11:25:37.380Z,51.62
2016-12-03T11:26:47.401Z,51.92
2016-12-03T11:27:57.433Z,51.43
2016-12-03T11:29:08.008Z,51.43
2016-12-03T11:30:18.346Z,51.34
2016-12-03T11:31:28.033Z,51.34
2016-12-03T11:32:38.121Z,51.46
2016-12-03T11:33:48.507Z,51.53
2016-12-03T11:34:58.082Z,51.46
2016-12-03T11:36:07.185Z,51.43
2016-12-03T11:37:16.632Z,51.36
2016-12-03T11:38:26.381Z,51.46
2016-12-03T11:39:36.737Z,51.84
2016-12-03T11:40:46.502Z,51.56
2016-12-03T11:41:56.824Z,51.56
2016-12-03T11:43:06.869Z,51.72
2016-12-03T11:44:16.893Z,51.84
2016-12-03T11:45:27.245Z,52.23
2016-12-03T11:46:36.963Z,52.23
2016-12-03T11:47:46.741Z,52.13
2016-12-03T11:48:55.917Z,52.33
2016-12-03T11:50:06.045Z,52.42
2016-12-03T11:51:16.072Z,52.42
2016-12-03T11:52:26.216Z,52.52
2016-12-03T11:53:36.592Z,52.23
2016-12-03T11:54:46.936Z,52.23
2016-12-03T11:55:57.367Z,52.52
2016-12-03T11:57:07.098Z,52.23
2016-12-03T11:58:17.100Z,52.13
2016-12-03T11:59:27.132Z,52.23
2016-12-03T12:00:37.489Z,52.33
2016-12-03T12:01:47.845Z,52.61
2016-12-03T12:02:57.871Z,52.33
2016-12-03T12:04:07.584Z,52.52
2016-12-03T12:05:16.972Z,52.61
2016-12-03T12:06:27.056Z,52.42
2016-12-03T12:07:37.070Z,52.42
2016-12-03T12:08:47.121Z,53
2016-12-03T12:09:56.815Z,52.81
2016-12-03T12:11:06.843Z,52.91
2016-12-03T12:12:16.555Z,52.61
2016-12-03T12:13:26.891Z,53.58
2016-12-03T12:14:36.933Z,52.91
2016-12-03T12:15:46.962Z,52.91
2016-12-03T12:16:57.311Z,53.19
2016-12-03T12:18:07.343Z,53
2016-12-03T12:19:17.053Z,53.39
2016-12-03T12:20:26.791Z,53.39
2016-12-03T12:21:36.586Z,53
2016-12-03T12:22:47.027Z,53.09
2016-12-03T12:23:56.744Z,53.09
2016-12-03T12:25:06.822Z,53.29
2016-12-03T12:26:17.270Z,53.77
2016-12-03T12:27:27.031Z,53.39
2016-12-03T12:28:36.843Z,53.39
2016-12-03T12:29:47.183Z,53.29
2016-12-03T12:30:57.243Z,53.48
2016-12-03T12:32:07.562Z,53.48
2016-12-03T12:33:17.283Z,53.77
2016-12-03T12:34:26.354Z,54.16
2016-12-03T12:35:36.059Z,53.96
2016-12-03T12:36:46.493Z,54.06
2016-12-03T12:37:56.242Z,54.44
2016-12-03T12:39:06.318Z,54.74
2016-12-03T12:40:16.332Z,54.83
2016-12-03T12:41:26.393Z,54.71
2016-12-03T12:42:35.790Z,55
2016-12-03T12:43:45.793Z,54.71
2016-12-03T12:44:56.099Z,54.42
2016-12-03T12:46:05.908Z,54.64
2016-12-03T12:47:16.435Z,54.83
2016-12-03T12:48:26.807Z,54.83
2016-12-03T12:49:36.500Z,54.8
2016-12-03T12:50:46.563Z,54.83
2016-12-03T12:51:56.583Z,54.9
2016-12-03T12:53:06.608Z,55.12
2016-12-03T12:54:16.632Z,53.67
2016-12-03T12:55:26.640Z,53.45
2016-12-03T12:56:36.662Z,52.59
2016-12-03T12:57:47.001Z,52.69
2016-12-03T12:58:57.019Z,52.69
2016-12-03T13:00:06.734Z,52.97
2016-12-03T13:01:16.819Z,53.36
2016-12-03T13:02:26.570Z,53.17
2016-12-03T13:03:36.444Z,52.87
2016-12-03T13:04:46.481Z,53.17
2016-12-03T13:05:56.492Z,52.49
2016-12-03T13:07:05.917Z,53.17
2016-12-03T13:08:16.463Z,53.36
2016-12-03T13:09:26.471Z,53.45
2016-12-03T13:10:36.940Z,53.36
2016-12-03T13:11:46.397Z,53.36
2016-12-03T13:12:56.660Z,53.45
2016-12-03T13:14:06.139Z,53.45
2016-12-03T13:15:16.645Z,53.27
2016-12-03T13:16:26.342Z,52.78
2016-12-03T13:17:36.144Z,53.07
2016-12-03T13:18:45.966Z,53.36
2016-12-03T13:19:55.701Z,53.45
2016-12-03T13:21:05.729Z,53.36
2016-12-03T13:22:15.458Z,52.69
2016-12-03T13:23:25.521Z,52.78
2016-12-03T13:24:35.237Z,52.49
2016-12-03T13:25:45.263Z,52.4
2016-12-03T13:26:55.641Z,52.69
2016-12-03T13:28:05.042Z,52.2
2016-12-03T13:29:15.061Z,52.3
2016-12-03T13:30:24.408Z,52.49
2016-12-03T13:31:33.681Z,52.2
2016-12-03T13:32:44.013Z,52.59
2016-12-03T13:33:54.440Z,52.3
2016-12-03T13:35:04.499Z,52.49
2016-12-03T13:36:14.217Z,52.49
2016-12-03T13:37:24.663Z,52.11
2016-12-03T13:38:34.561Z,52.11
2016-12-03T13:39:44.310Z,52.11
2016-12-03T13:40:54.009Z,51.72
2016-12-03T13:42:03.968Z,51.62
2016-12-03T13:43:13.376Z,51.82
2016-12-03T13:44:23.394Z,51.72
2016-12-03T13:45:32.865Z,51.62
2016-12-03T13:46:43.058Z,51.62
2016-12-03T13:47:52.792Z,51.72
2016-12-03T13:49:02.260Z,51.62
2016-12-03T13:50:12.605Z,51.82
2016-12-03T13:51:22.993Z,51.82
2016-12-03T13:52:33.013Z,51.62
2016-12-03T13:53:42.455Z,51.62
2016-12-03T13:54:52.780Z,51.53
2016-12-03T13:56:02.823Z,51.53
2016-12-03T13:57:12.845Z,51.82
2016-12-03T13:58:22.686Z,51.53
2016-12-03T13:59:32.717Z,51.43
2016-12-03T14:00:42.415Z,51.62
2016-12-03T14:01:52.165Z,51.53
2016-12-03T14:03:02.182Z,51.53
2016-12-03T14:04:11.891Z,51.43
2016-12-03T14:05:21.999Z,51.62
2016-12-03T14:06:32.089Z,51.5
2016-12-03T14:07:42.421Z,51.89
2016-12-03T14:08:52.130Z,51.82
2016-12-03T14:10:02.180Z,51.72
2016-12-03T14:11:12.507Z,51.6
2016-12-03T14:12:22.217Z,51.62
2016-12-03T14:13:31.783Z,51.7
2016-12-03T14:14:42.105Z,51.7
2016-12-03T14:15:51.878Z,51.6
2016-12-03T14:17:02.028Z,51.7
2016-12-03T14:18:11.327Z,51.89
2016-12-03T14:19:20.846Z,51.79
2016-12-03T14:20:30.550Z,51.6
2016-12-03T14:21:40.896Z,51.98
2016-12-03T14:22:50.651Z,52.18
2016-12-03T14:24:00.965Z,52.47
2016-12-03T14:25:10.699Z,52.27
2016-12-03T14:26:21.016Z,52.37
2016-12-03T14:27:31.058Z,52.47
2016-12-03T14:28:41.773Z,52.47
2016-12-03T14:29:52.143Z,52.37
2016-12-03T14:31:02.139Z,52.27
2016-12-03T14:32:11.900Z,52.47
2016-12-03T14:33:21.705Z,52.37
2016-12-03T14:35:03.500Z,52.18
2016-12-03T14:36:13.201Z,52.47
2016-12-03T14:37:23.013Z,52.47
2016-12-03T14:38:32.714Z,52.47
2016-12-03T14:39:43.047Z,52.66
2016-12-03T14:40:53.240Z,52.56
2016-12-03T14:42:02.928Z,52.27
2016-12-03T14:43:13.358Z,52.18
2016-12-03T14:44:23.159Z,52.66
2016-12-03T14:45:33.257Z,52.08
2016-12-03T14:46:42.972Z,52.47
2016-12-03T14:47:52.976Z,52.18
2016-12-03T14:49:03.011Z,51.79
2016-12-03T14:50:12.730Z,51.7
2016-12-03T14:51:22.174Z,51.7
2016-12-03T14:52:32.239Z,51.79
2016-12-03T14:53:42.368Z,52.47
2016-12-03T14:54:52.703Z,51.79
2016-12-03T14:56:02.780Z,51.79
2016-12-03T14:57:12.830Z,51.6
2016-12-03T14:58:22.280Z,51.89
2016-12-03T14:59:32.343Z,52.18
2016-12-03T15:00:42.357Z,52.08
2016-12-03T15:01:52.693Z,51.98